5e Open VTT Dunes de Flandre 2019 - BeachRace - Dunkerque

Epreuve sélectionnée:


CD 33.5km - Résultats Scratch

Filtre:

Partants Général Top 5



Recherche:

N° dossard
Nom
Club
CD 33.5km - Classement arrivée
Clt Athlète Nat. Club Temps Sexe Cat FINISH Lap1-CP1 Lap1-CP2 LAP1 Lap2-CP1 Lap2-CP2 Lap2
1 508 GELUYKENS Kenny Team 2275 00:58:43 M (1e) Master 1 (1e) 00:00:00 (0) 00:11:17 (1e) 00:23:01 (1e) 00:28:19 (2e) 00:40:07 (1e) 00:52:52 (1e) 00:58:43 (1e) Partagez votre performance
2 501 KRAMAR Tony 01:01:34 M (2e) Master 2 (1e) 00:00:00 (0) 00:11:19 (2e) 00:23:02 (2e) 00:28:16 (1e) 00:41:13 (2e) 00:55:23 (2e) 01:01:34 (2e) Partagez votre performance
3 573 EXPEELS Lieven Houtland westkust 01:01:37 M (3e) Jeunes (1e) 00:00:00 (0) 00:11:23 (3e) 00:23:03 (3e) 00:28:19 (3e) 00:41:14 (3e) 00:55:24 (3e) 01:01:37 (3e) Partagez votre performance
4 543 RINGOT Romain Omax team beach ogs cycling 01:02:13 M (4e) Master 1 (2e) 00:00:00 (0) 00:11:43 (8e) 00:23:52 (5e) 00:29:23 (5e) 00:42:01 (5e) 00:56:05 (4e) 01:02:13 (4e) Partagez votre performance
5 589 LEPILLIET Aymeric Eseg douai 01:02:17 M (5e) Jeunes (2e) 00:00:00 (0) 00:11:26 (4e) 00:23:06 (4e) 00:28:32 (4e) 00:41:59 (4e) 00:56:05 (5e) 01:02:17 (5e) Partagez votre performance
6 587 FOURRIER Vincent Cl barlin 01:02:55 M (6e) Senior (1e) 00:00:00 (0) 00:11:56 (9e) 00:24:35 (10e) 00:30:11 (7e) 00:43:15 (6e) 00:57:04 (7e) 01:02:55 (6e) Partagez votre performance
7 502 LEVECKE Milan 01:03:02 M (7e) Senior (2e) 00:00:00 (0) 00:12:09 (11e) 00:24:28 (7e) 00:30:11 (8e) 00:43:15 (7e) 00:57:02 (6e) 01:03:02 (7e) Partagez votre performance
8 575 ROLLANDT Mady O grande synthe 01:05:55 M (8e) Jeunes (3e) 00:00:00 (0) 00:11:34 (5e) 00:24:07 (6e) 00:29:56 (6e) 00:43:31 (8e) 00:58:50 (8e) 01:05:55 (8e) Partagez votre performance
9 618 DANNEEL Vincent Wtc de crelanspurters 01:06:04 M (9e) Master 2 (2e) 00:00:00 (0) 00:12:29 (16e) 00:25:13 (14e) 00:30:59 (12e) 00:44:20 (10e) 00:59:35 (9e) 01:06:04 (9e) Partagez votre performance
10 590 SAMAEY Jan Thijsboys 01:06:07 M (10e) Master 3 (1e) 00:00:00 (0) 00:11:41 (7e) 00:24:34 (9e) 00:30:16 (9e) 00:44:20 (9e) 00:59:53 (10e) 01:06:07 (10e) Partagez votre performance
11 591 LECOINTE Valentin Cl barlin 01:06:10 M (11e) Jeunes (4e) 00:00:00 (0) 00:12:15 (14e) 00:25:14 (15e) 00:31:14 (15e) 00:44:25 (12e) 00:59:53 (11e) 01:06:10 (11e) Partagez votre performance
12 556 FRERE Guillaume Tac cyclisme 01:06:17 M (12e) Master 1 (3e) 00:00:00 (0) 00:12:12 (13e) 00:24:48 (12e) 00:30:16 (10e) 00:44:23 (11e) 00:59:54 (12e) 01:06:17 (12e) Partagez votre performance
13 582 MOERKERKE Ignace Sportbar timeout diksmuide 01:06:54 M (13e) Master 2 (3e) 00:00:00 (0) 00:11:35 (6e) 00:24:32 (8e) 00:30:37 (11e) 00:44:34 (13e) 01:00:24 (13e) 01:06:54 (13e) Partagez votre performance
14 636 DAMMAN Jordan Unirun 01:07:25 M (14e) Master 1 (4e) 00:00:00 (0) 00:12:55 (24e) 00:26:10 (22e) 00:31:58 (20e) 00:45:44 (14e) 01:00:56 (14e) 01:07:25 (14e) Partagez votre performance
15 634 CALLEWAERT Ian 01:07:46 M (15e) Master 1 (5e) 00:00:00 (0) 00:12:09 (12e) 00:24:52 (13e) 00:31:03 (13e) 00:45:44 (15e) 01:01:01 (15e) 01:07:46 (15e) Partagez votre performance
16 621 MÉQUINION Theo Cc brimeux 01:07:47 M (16e) Jeunes (5e) 00:00:00 (0) 00:12:39 (19e) 00:25:55 (18e) 00:31:57 (18e) 00:46:03 (18e) 01:01:24 (20e) 01:07:47 (16e) Partagez votre performance
17 516 DELECOURT Jérôme Vc st omer 01:07:47 M (17e) Senior (3e) 00:00:00 (0) 00:12:50 (22e) 00:26:09 (20e) 00:32:02 (23e) 00:46:07 (21e) 01:01:23 (17e) 01:07:47 (17e) Partagez votre performance
18 629 PETIT Didier Dunkerque littoral cyclisme 01:07:52 M (18e) Master 2 (4e) 00:00:00 (0) 00:12:08 (10e) 00:24:46 (11e) 00:31:03 (14e) 00:45:45 (16e) 01:01:01 (16e) 01:07:52 (18e) Partagez votre performance
19 564 VERMEERSCH Arne Team atome 6 bikestore 01:07:55 M (19e) Senior (4e) 00:00:00 (0) 00:12:43 (20e) 00:26:20 (29e) 00:31:59 (21e) 00:46:25 (22e) 01:01:24 (18e) 01:07:55 (19e) Partagez votre performance
20 558 DAVAINE Hugues 01:07:56 M (20e) Master 3 (2e) 00:00:00 (0) 00:12:18 (15e) 00:25:15 (16e) 00:31:44 (16e) 00:46:02 (17e) 01:01:28 (22e) 01:07:56 (20e) Partagez votre performance
21 594 DEMARET Simon Ec hermelinghem 01:08:04 M (21e) Senior (5e) 00:00:00 (0) 00:13:00 (25e) 00:26:09 (21e) 00:32:00 (22e) 00:46:44 (25e) 01:01:24 (19e) 01:08:04 (21e) Partagez votre performance
22 616 DEGRUTÈRE Gatien Vtt des 2 caps 01:08:13 M (22e) Jeunes (6e) 00:00:00 (0) 00:12:37 (17e) 00:25:55 (17e) 00:31:55 (17e) 00:46:06 (20e) 01:01:26 (21e) 01:08:13 (22e) Partagez votre performance
23 643 HETTINGER Ludovic 01:09:11 M (23e) Master 1 (6e) 00:00:00 (0) 00:13:06 (27e) 00:26:18 (27e) 00:32:24 (27e) 00:46:33 (23e) 01:02:16 (23e) 01:09:11 (23e) Partagez votre performance
24 528 VICTOR Birger Urbano thijs 01:09:22 M (24e) Senior (6e) 00:00:00 (0) 00:13:10 (29e) 00:26:13 (23e) 00:32:05 (24e) 00:46:43 (24e) 01:02:23 (26e) 01:09:22 (24e) Partagez votre performance
25 595 ERAUD Guillaume Team absolute vtt 01:09:23 M (25e) Master 1 (7e) 00:00:00 (0) 00:13:07 (28e) 00:26:19 (28e) 00:32:25 (28e) 00:46:45 (26e) 01:02:17 (24e) 01:09:23 (25e) Partagez votre performance
26 576 DEZEURE Théo O grande synthe 01:09:26 M (26e) Jeunes (7e) 00:00:00 (0) 00:13:04 (26e) 00:26:14 (24e) 00:32:06 (25e) 00:46:57 (27e) 01:02:20 (25e) 01:09:26 (26e) Partagez votre performance
27 578 EVRAD Dylan Revo race bike club 01:10:16 M (27e) Senior (7e) 00:00:00 (0) 00:12:54 (23e) 00:26:17 (26e) 00:32:40 (29e) 00:47:35 (29e) 01:03:06 (27e) 01:10:16 (27e) Partagez votre performance
28 620 PREVOT Greg O grande synthe 01:11:31 M (28e) Master 2 (5e) 00:00:00 (0) 00:13:38 (35e) 00:27:25 (34e) 00:33:49 (34e) 00:48:58 (31e) 01:05:00 (32e) 01:11:31 (28e) Partagez votre performance
29 568 BIZ Michael O grande synthe 01:11:33 M (29e) Master 2 (6e) 00:00:00 (0) 00:49:34 (133e) 00:27:23 (32e) 00:33:48 (33e) 00:00:00 (0) 01:04:55 (28e) 01:11:33 (29e) Partagez votre performance
30 520 VROLAND Maxime Triathlon littoral 59 01:11:52 M (30e) Senior (8e) 00:00:00 (0) 00:13:16 (30e) 00:26:40 (31e) 00:33:09 (30e) 00:49:14 (33e) 01:04:58 (29e) 01:11:52 (30e) Partagez votre performance
31 625 DEPATURE Franck SKWAL ATHLON 01:11:54 M (31e) Master 2 (7e) 00:00:00 (0) 00:13:17 (31e) 00:27:24 (33e) 00:33:47 (32e) 00:48:30 (30e) 01:04:59 (31e) 01:11:54 (31e) Partagez votre performance
32 631 KOCHANSKI Steven O grande synthe 01:12:11 M (32e) Senior (9e) 00:00:00 (0) 00:13:31 (34e) 00:26:39 (30e) 00:33:31 (31e) 00:48:58 (32e) 01:04:59 (30e) 01:12:11 (32e) Partagez votre performance
33 557 NEYRAUD Jeremy Resilience club 01:12:21 M (33e) Senior (10e) 00:00:00 (0) 00:13:48 (36e) 00:28:02 (38e) 00:34:32 (39e) 00:49:34 (34e) 01:05:02 (34e) 01:12:21 (33e) Partagez votre performance
34 540 VAN DAMME Maxim Young cycling team middelkerke 01:12:50 M (34e) Jeunes (8e) 00:00:00 (0) 00:12:37 (18e) 00:25:59 (19e) 00:31:57 (19e) 00:46:04 (19e) 01:05:02 (33e) 01:12:50 (34e) Partagez votre performance
35 521 GUERIN Richard Club cycliste grand reims 01:13:30 M (35e) Master 3 (3e) 00:00:00 (0) 00:14:04 (44e) 00:28:05 (39e) 00:34:35 (41e) 00:49:58 (38e) 01:06:26 (36e) 01:13:30 (35e) Partagez votre performance
36 580 MASSON Nicolas Team bailleul le soc 01:13:35 M (36e) Master 2 (8e) 00:00:00 (0) 00:13:30 (33e) 00:27:55 (36e) 00:34:26 (36e) 00:49:35 (36e) 01:06:27 (37e) 01:13:35 (36e) Partagez votre performance
37 523 BULTÉ Olivier Vtt wailly beaucamp 01:13:45 M (37e) Master 1 (8e) 00:00:00 (0) 00:13:53 (39e) 00:28:07 (40e) 00:34:24 (35e) 00:50:00 (39e) 01:06:30 (39e) 01:13:45 (37e) Partagez votre performance
38 583 VANDEWALLE Frank Wtc de berghazen 01:13:59 M (38e) Master 2 (9e) 00:00:00 (0) 00:13:21 (32e) 00:27:50 (35e) 00:34:29 (37e) 00:49:34 (35e) 01:06:29 (38e) 01:13:59 (38e) Partagez votre performance
39 624 THEAU Antoine Dreams riders la capelle 01:14:02 M (39e) Master 1 (9e) 00:00:00 (0) 00:14:12 (47e) 00:28:01 (37e) 00:34:29 (38e) 00:49:56 (37e) 01:06:23 (35e) 01:14:02 (39e) Partagez votre performance
40 533 NOPPE Christophe Ctc 01:14:04 M (40e) Master 2 (10e) 00:00:00 (0) 00:14:05 (45e) 00:28:52 (47e) 00:35:26 (44e) 00:50:51 (42e) 01:07:09 (40e) 01:14:04 (40e) Partagez votre performance
41 603 THIRIONET Patrick Us coudekerquoise 01:14:04 M (41e) Master 3 (4e) 00:00:00 (0) 00:14:02 (43e) 00:28:07 (41e) 00:34:33 (40e) 00:50:53 (43e) 01:07:11 (42e) 01:14:04 (41e) Partagez votre performance
42 554 CARLÉ Jacques Ctc 01:14:35 M (42e) Master 2 (11e) 00:00:00 (0) 00:13:56 (40e) 00:28:49 (44e) 00:35:25 (43e) 00:50:49 (40e) 01:07:10 (41e) 01:14:35 (42e) Partagez votre performance
43 505 VERSLYPE Hendrik Beachbikers 01:15:18 M (43e) Master 2 (12e) 00:00:00 (0) 00:14:07 (46e) 00:28:49 (43e) 00:36:06 (47e) 00:51:40 (45e) 01:08:02 (44e) 01:15:18 (43e) Partagez votre performance
44 574 HENU Benjamin Lys calais triathlon 01:15:20 M (44e) Master 1 (10e) 00:00:00 (0) 00:13:58 (41e) 00:29:29 (49e) 00:36:10 (49e) 00:51:42 (46e) 01:08:09 (46e) 01:15:20 (44e) Partagez votre performance
45 599 RAEKELBOOM Olivier Es arques cyclisme 01:15:28 M (45e) Master 2 (13e) 00:00:00 (0) 00:14:13 (48e) 00:28:50 (45e) 00:35:33 (45e)